Time;durP1;ratioP1;P1;durP2;ratioP2;P2;SDS_P1;SDS_P2;PMS_P1;PMS_P2;Temp;Humidity;BMP_temperature;BMP_pressure;BME280_temperature;BME280_humidity;BME280_pressure;Samples;Min_cycle;Max_cycle;Signal;HPM_P1;HPM_P2
2023/12/13 00:01:42;;;;;;;;;;;9.10;99.90;;;;;;5033291;28;20041;-79
2023/12/13 00:04:11;;;;;;;;;;;9.10;99.90;;;;;;5029648;28;19988;-78
2023/12/13 00:06:38;;;;;;;;;;;9.20;99.90;;;;;;5016865;28;20301;-78
2023/12/13 00:09:08;;;;;;;;;;;9.20;99.90;;;;;;5028648;28;19932;-80
2023/12/13 00:11:34;;;;;;;;;;;9.20;99.90;;;;;;5032543;28;19932;-79
2023/12/13 00:14:01;;;;;;;;;;;9.20;99.90;;;;;;5033568;28;19949;-79
2023/12/13 00:16:28;;;;;;;;;;;9.20;99.90;;;;;;5025843;28;19926;-79
2023/12/13 00:18:55;;;;;;;;;;;9.20;99.90;;;;;;5018305;28;19925;-78
2023/12/13 00:21:23;;;;;;;;;;;9.20;99.90;;;;;;5027599;28;19929;-80
2023/12/13 00:23:50;;;;;;;;;;;9.20;99.90;;;;;;5030253;28;19933;-79
2023/12/13 00:26:17;;;;;;;;;;;9.20;99.90;;;;;;5025741;28;20380;-78
2023/12/13 00:28:44;;;;;;;;;;;9.30;99.90;;;;;;5037400;28;19925;-81
2023/12/13 00:31:11;;;;;;;;;;;9.30;99.90;;;;;;5032140;28;20376;-80
2023/12/13 00:33:38;;;;;;;;;;;9.30;99.90;;;;;;5036821;28;19936;-80
2023/12/13 00:36:06;;;;;;;;;;;9.30;99.90;;;;;;5034422;28;19971;-79
2023/12/13 00:38:34;;;;;;;;;;;9.30;99.90;;;;;;5034763;28;20396;-81
2023/12/13 00:41:00;;;;;;;;;;;9.30;99.90;;;;;;5034041;28;19925;-78
2023/12/13 00:43:27;;;;;;;;;;;9.30;99.90;;;;;;5040210;28;20055;-78
2023/12/13 00:45:54;;;;;;;;;;;9.30;99.90;;;;;;5044284;28;19929;-78
2023/12/13 00:48:21;;;;;;;;;;;9.40;99.90;;;;;;5021209;28;19926;-78
2023/12/13 00:50:47;;;;;;;;;;;9.40;99.90;;;;;;5032692;28;19948;-80
2023/12/13 00:53:14;;;;;;;;;;;9.40;99.90;;;;;;5017337;28;19926;-79
2023/12/13 00:55:42;;;;;;;;;;;9.40;99.90;;;;;;5035678;28;19925;-79
2023/12/13 00:58:09;;;;;;;;;;;9.40;99.90;;;;;;5035572;28;20016;-80
2023/12/13 01:00:36;;;;;;;;;;;9.40;99.90;;;;;;5040496;28;19979;-79
2023/12/13 01:03:03;;;;;;;;;;;9.50;99.90;;;;;;5055715;28;19933;-80
2023/12/13 01:05:29;;;;;;;;;;;9.40;99.90;;;;;;5040941;28;19925;-80
2023/12/13 01:07:56;;;;;;;;;;;9.40;99.90;;;;;;5035200;28;20380;-81
2023/12/13 01:10:23;;;;;;;;;;;9.40;99.90;;;;;;5025666;28;19930;-81
2023/12/13 01:12:51;;;;;;;;;;;9.40;99.90;;;;;;5028227;28;19925;-80
2023/12/13 01:15:18;;;;;;;;;;;9.40;99.90;;;;;;5033260;28;19979;-80
2023/12/13 01:17:44;;;;;;;;;;;9.40;99.90;;;;;;5040626;28;19928;-78
2023/12/13 01:20:11;;;;;;;;;;;9.40;99.90;;;;;;5043035;28;20347;-78
2023/12/13 01:22:38;;;;;;;;;;;9.40;99.90;;;;;;5032721;28;19925;-78
2023/12/13 01:25:06;;;;;;;;;;;9.40;99.90;;;;;;5034598;28;19926;-81
2023/12/13 01:27:33;;;;;;;;;;;9.40;99.90;;;;;;5035410;28;20332;-80
2023/12/13 01:30:01;;;;;;;;;;;9.40;99.90;;;;;;5029618;28;19971;-79
2023/12/13 01:32:28;;;;;;;;;;;9.40;99.90;;;;;;5023788;28;19925;-81
2023/12/13 01:34:54;;;;;;;;;;;9.40;99.90;;;;;;5034268;28;19934;-80
2023/12/13 01:37:21;;;;;;;;;;;9.40;99.90;;;;;;5035250;28;19933;-82
2023/12/13 01:39:48;;;;;;;;;;;9.40;99.90;;;;;;5036548;28;20313;-80
2023/12/13 01:42:14;;;;;;;;;;;9.40;99.90;;;;;;5036126;28;20438;-82
2023/12/13 01:44:41;;;;;;;;;;;9.40;99.90;;;;;;5037285;28;19925;-82
2023/12/13 01:47:09;;;;;;;;;;;9.40;99.90;;;;;;5034352;28;19994;-80
2023/12/13 01:49:36;;;;;;;;;;;9.30;99.90;;;;;;5038479;28;19925;-79
2023/12/13 01:52:03;;;;;;;;;;;9.30;99.90;;;;;;5047791;28;19971;-80
2023/12/13 01:54:31;;;;;;;;;;;9.30;99.90;;;;;;5031739;28;20518;-80
2023/12/13 01:56:58;;;;;;;;;;;9.20;99.90;;;;;;5033931;28;19926;-79
2023/12/13 01:59:28;;;;;;;;;;;9.20;99.90;;;;;;5025967;28;19926;-80
2023/12/13 02:01:55;;;;;;;;;;;9.20;99.90;;;;;;5016518;28;19926;-80
2023/12/13 02:04:24;;;;;;;;;;;9.20;99.90;;;;;;5029088;28;19979;-79
2023/12/13 02:06:51;;;;;;;;;;;9.20;99.90;;;;;;5034166;28;19987;-82
2023/12/13 02:09:18;;;;;;;;;;;9.20;99.90;;;;;;5034990;28;19932;-81
2023/12/13 02:11:45;;;;;;;;;;;9.20;99.90;;;;;;5034382;28;19969;-80
2023/12/13 02:14:12;;;;;;;;;;;9.20;99.90;;;;;;5020299;28;19930;-81
2023/12/13 02:16:39;;;;;;;;;;;9.20;99.90;;;;;;5031807;28;19995;-81
2023/12/13 02:19:06;;;;;;;;;;;9.20;99.90;;;;;;5035921;28;20003;-81
2023/12/13 02:21:34;;;;;;;;;;;9.20;99.90;;;;;;5018335;28;19948;-81
2023/12/13 02:24:05;;;;;;;;;;;9.20;99.90;;;;;;5015848;28;19925;-81
2023/12/13 02:26:32;;;;;;;;;;;9.20;99.90;;;;;;5032472;28;19929;-80
2023/12/13 02:28:59;;;;;;;;;;;9.20;99.90;;;;;;5033150;28;19925;-80
2023/12/13 02:31:26;;;;;;;;;;;9.20;99.90;;;;;;5032362;28;19925;-81
2023/12/13 02:33:54;;;;;;;;;;;9.20;99.90;;;;;;5015514;28;20005;-81
2023/12/13 02:36:21;;;;;;;;;;;9.20;99.90;;;;;;5032765;28;19964;-80
2023/12/13 02:38:48;;;;;;;;;;;9.20;99.90;;;;;;5033872;28;19994;-79
2023/12/13 02:41:16;;;;;;;;;;;9.20;99.90;;;;;;5032886;28;19971;-79
2023/12/13 02:43:43;;;;;;;;;;;9.30;99.90;;;;;;5033655;28;19925;-78
2023/12/13 02:46:10;;;;;;;;;;;9.30;99.90;;;;;;5033876;28;19929;-78
2023/12/13 02:48:36;;;;;;;;;;;9.20;99.90;;;;;;5030170;28;19925;-79
2023/12/13 02:51:03;;;;;;;;;;;9.30;99.90;;;;;;5030231;28;19930;-80
2023/12/13 02:53:30;;;;;;;;;;;9.30;99.90;;;;;;5019911;28;19925;-79
2023/12/13 02:55:57;;;;;;;;;;;9.30;99.90;;;;;;5025149;28;20388;-77
2023/12/13 02:58:25;;;;;;;;;;;9.30;99.90;;;;;;5025922;28;19929;-79
2023/12/13 03:00:52;;;;;;;;;;;9.30;99.90;;;;;;5019642;28;20454;-79
2023/12/13 03:03:19;;;;;;;;;;;9.30;99.90;;;;;;5029094;28;19925;-78
2023/12/13 03:05:45;;;;;;;;;;;9.10;99.90;;;;;;5028369;28;20032;-77
2023/12/13 03:08:15;;;;;;;;;;;9.20;99.90;;;;;;5032230;28;19925;-77
2023/12/13 03:10:42;;;;;;;;;;;9.20;99.90;;;;;;5025582;28;19925;-76
2023/12/13 03:13:09;;;;;;;;;;;9.20;99.90;;;;;;5030250;28;19925;-76
2023/12/13 03:15:37;;;;;;;;;;;9.20;99.90;;;;;;5031293;28;19951;-75
2023/12/13 03:18:03;;;;;;;;;;;9.20;99.90;;;;;;5032147;28;19929;-76
2023/12/13 03:20:31;;;;;;;;;;;9.10;99.90;;;;;;5032590;28;19925;-77
2023/12/13 03:22:58;;;;;;;;;;;9.10;99.90;;;;;;5033865;28;19964;-75
2023/12/13 03:25:25;;;;;;;;;;;9.10;99.90;;;;;;5037309;28;20458;-76
2023/12/13 03:27:51;;;;;;;;;;;9.10;99.90;;;;;;5030606;28;19925;-79
2023/12/13 03:30:18;;;;;;;;;;;9.10;99.90;;;;;;5031524;28;20454;-79
2023/12/13 03:32:46;;;;;;;;;;;9.10;99.90;;;;;;5033644;28;19931;-79
2023/12/13 03:35:13;;;;;;;;;;;9.10;99.90;;;;;;5031453;28;19925;-77
2023/12/13 03:37:40;;;;;;;;;;;9.10;99.90;;;;;;5033543;28;19975;-78
2023/12/13 03:40:07;;;;;;;;;;;9.10;99.90;;;;;;5033804;28;20414;-77
2023/12/13 03:42:34;;;;;;;;;;;9.10;99.90;;;;;;5036879;28;19975;-77
2023/12/13 03:45:01;;;;;;;;;;;9.20;99.90;;;;;;5028960;28;19925;-77
2023/12/13 03:47:27;;;;;;;;;;;9.10;99.90;;;;;;5031410;28;20591;-77
2023/12/13 03:49:56;;;;;;;;;;;9.20;99.90;;;;;;5034671;28;19975;-78
2023/12/13 03:52:22;;;;;;;;;;;9.20;99.90;;;;;;5036039;28;20040;-79
2023/12/13 03:54:49;;;;;;;;;;;9.20;99.90;;;;;;5036412;28;19925;-79
2023/12/13 03:57:16;;;;;;;;;;;9.20;99.90;;;;;;5031143;28;19925;-78
2023/12/13 03:59:42;;;;;;;;;;;9.20;99.90;;;;;;5033699;28;19925;-82
2023/12/13 04:02:09;;;;;;;;;;;9.20;99.90;;;;;;5038347;28;19933;-79
2023/12/13 04:04:36;;;;;;;;;;;9.20;99.90;;;;;;5034428;28;19925;-80
2023/12/13 04:07:05;;;;;;;;;;;9.20;99.90;;;;;;5032906;28;19933;-78
2023/12/13 04:09:32;;;;;;;;;;;9.10;99.90;;;;;;5034999;28;19931;-78
2023/12/13 04:11:59;;;;;;;;;;;9.10;99.90;;;;;;5031738;28;19925;-79
2023/12/13 04:14:26;;;;;;;;;;;9.10;99.90;;;;;;5036107;28;20331;-79
2023/12/13 04:16:53;;;;;;;;;;;9.10;99.90;;;;;;5035041;28;19953;-79
2023/12/13 04:19:19;;;;;;;;;;;9.10;99.90;;;;;;5035372;28;19925;-78
2023/12/13 04:21:46;;;;;;;;;;;9.10;99.90;;;;;;5036180;28;19925;-80
2023/12/13 04:24:14;;;;;;;;;;;9.10;99.90;;;;;;5036932;28;19925;-79
2023/12/13 04:26:41;;;;;;;;;;;9.10;99.90;;;;;;5033810;28;19929;-81
2023/12/13 04:29:08;;;;;;;;;;;9.10;99.90;;;;;;5034101;28;19964;-80
2023/12/13 04:31:35;;;;;;;;;;;9.10;99.90;;;;;;5031105;28;20370;-79
2023/12/13 04:34:01;;;;;;;;;;;9.10;99.90;;;;;;5032169;28;19925;-82
2023/12/13 04:36:28;;;;;;;;;;;9.10;99.90;;;;;;5035038;28;19971;-84
2023/12/13 04:38:55;;;;;;;;;;;9.10;99.90;;;;;;5036965;28;20280;-82
2023/12/13 04:41:23;;;;;;;;;;;9.10;99.90;;;;;;5037967;28;19925;-83
2023/12/13 04:43:50;;;;;;;;;;;9.10;99.90;;;;;;5037567;28;20176;-83
2023/12/13 04:46:17;;;;;;;;;;;9.10;99.90;;;;;;5036486;28;20345;-83
2023/12/13 04:48:44;;;;;;;;;;;9.10;99.90;;;;;;5038327;28;19976;-82
2023/12/13 04:51:11;;;;;;;;;;;9.10;99.90;;;;;;5037552;28;20043;-79
2023/12/13 04:53:37;;;;;;;;;;;9.10;99.90;;;;;;5037361;28;19929;-80
2023/12/13 04:56:04;;;;;;;;;;;9.10;99.90;;;;;;5025880;28;19925;-81
2023/12/13 04:58:33;;;;;;;;;;;9.10;99.90;;;;;;5036432;28;19925;-80
2023/12/13 05:00:59;;;;;;;;;;;9.10;99.90;;;;;;5035963;28;19948;-79
2023/12/13 05:03:28;;;;;;;;;;;9.10;99.90;;;;;;5037165;28;19929;-81
2023/12/13 05:05:54;;;;;;;;;;;9.10;99.90;;;;;;5036066;28;19960;-78
2023/12/13 05:08:21;;;;;;;;;;;9.10;99.90;;;;;;5034267;28;19933;-79
2023/12/13 05:10:48;;;;;;;;;;;9.10;99.90;;;;;;5036171;28;20292;-80
2023/12/13 05:13:15;;;;;;;;;;;9.10;99.90;;;;;;5032095;28;19933;-79
2023/12/13 05:15:43;;;;;;;;;;;9.10;99.90;;;;;;5034835;28;19932;-79
2023/12/13 05:18:09;;;;;;;;;;;9.10;99.90;;;;;;5034535;28;20448;-80
2023/12/13 05:20:36;;;;;;;;;;;9.00;99.90;;;;;;5035190;28;20283;-78
2023/12/13 05:23:03;;;;;;;;;;;9.00;99.90;;;;;;5033951;28;20343;-79
2023/12/13 05:25:30;;;;;;;;;;;9.00;99.90;;;;;;5034019;28;19925;-78
2023/12/13 05:27:56;;;;;;;;;;;8.90;99.90;;;;;;5034158;28;20438;-77
2023/12/13 05:30:23;;;;;;;;;;;8.90;99.90;;;;;;5033104;28;19956;-78
2023/12/13 05:32:52;;;;;;;;;;;8.90;99.90;;;;;;5038956;28;19964;-82
2023/12/13 05:35:19;;;;;;;;;;;8.90;99.90;;;;;;5033826;28;19929;-82
2023/12/13 05:37:46;;;;;;;;;;;8.80;99.90;;;;;;5039251;28;19926;-83
2023/12/13 05:40:13;;;;;;;;;;;8.80;99.90;;;;;;5038670;28;19950;-84
2023/12/13 05:42:40;;;;;;;;;;;8.80;99.90;;;;;;5026340;28;19926;-84
2023/12/13 05:45:08;;;;;;;;;;;8.80;99.90;;;;;;5037716;28;19979;-84
2023/12/13 05:47:34;;;;;;;;;;;8.80;99.90;;;;;;5036085;28;19926;-84
2023/12/13 05:50:04;;;;;;;;;;;8.70;99.90;;;;;;5039628;28;19933;-84
2023/12/13 05:52:32;;;;;;;;;;;8.80;99.90;;;;;;5038085;28;19925;-84
2023/12/13 05:54:58;;;;;;;;;;;8.80;99.90;;;;;;5035817;28;19925;-84
2023/12/13 05:57:25;;;;;;;;;;;8.80;99.90;;;;;;5043072;28;19971;-83
2023/12/13 05:59:52;;;;;;;;;;;8.80;99.90;;;;;;5035770;28;19979;-83
2023/12/13 06:02:19;;;;;;;;;;;8.80;99.90;;;;;;5131007;22;19932;-83
2023/12/13 06:04:46;;;;;;;;;;;8.80;99.90;;;;;;5069492;28;20345;-85
2023/12/13 06:07:14;;;;;;;;;;;8.80;99.90;;;;;;5075647;28;20299;-85
2023/12/13 06:09:41;;;;;;;;;;;8.80;99.90;;;;;;5076882;28;20389;-82
2023/12/13 06:12:08;;;;;;;;;;;8.80;99.90;;;;;;5075702;28;19925;-83
2023/12/13 06:14:35;;;;;;;;;;;8.80;99.90;;;;;;5076920;28;20017;-84
2023/12/13 06:17:02;;;;;;;;;;;8.80;99.90;;;;;;5064580;28;19933;-81
2023/12/13 06:19:29;;;;;;;;;;;8.80;99.90;;;;;;5071179;28;19928;-84
2023/12/13 06:21:56;;;;;;;;;;;8.90;99.90;;;;;;5066446;28;19924;-78
2023/12/13 06:24:24;;;;;;;;;;;8.90;99.90;;;;;;5069233;28;19970;-82
2023/12/13 06:26:51;;;;;;;;;;;8.90;99.90;;;;;;5061958;28;19928;-82
2023/12/13 06:29:18;;;;;;;;;;;8.80;99.90;;;;;;5066254;28;19924;-84
2023/12/13 06:31:45;;;;;;;;;;;8.80;99.90;;;;;;5068997;28;19944;-82
2023/12/13 06:34:11;;;;;;;;;;;8.90;99.90;;;;;;5072771;28;20368;-81
2023/12/13 06:36:38;;;;;;;;;;;8.90;99.90;;;;;;5063602;28;19925;-80
2023/12/13 06:39:07;;;;;;;;;;;8.80;99.90;;;;;;5065695;28;19928;-81
2023/12/13 06:41:36;;;;;;;;;;;8.90;99.90;;;;;;5053009;28;20299;-82
2023/12/13 06:44:03;;;;;;;;;;;8.90;99.90;;;;;;5052168;28;19978;-80
2023/12/13 06:46:30;;;;;;;;;;;8.90;99.90;;;;;;5062576;28;19960;-81
2023/12/13 06:48:56;;;;;;;;;;;8.90;99.90;;;;;;5057747;28;19948;-81
2023/12/13 06:51:23;;;;;;;;;;;8.90;99.90;;;;;;5053101;28;19933;-82
2023/12/13 06:53:51;;;;;;;;;;;8.90;99.90;;;;;;5056250;28;20009;-84
2023/12/13 06:56:18;;;;;;;;;;;8.90;99.90;;;;;;5052730;28;19963;-80
2023/12/13 06:58:46;;;;;;;;;;;8.90;99.90;;;;;;5057424;28;19970;-84
2023/12/13 07:01:13;;;;;;;;;;;8.90;99.90;;;;;;5062719;28;19978;-82
2023/12/13 07:03:41;;;;;;;;;;;8.90;99.90;;;;;;5052804;28;19985;-81
2023/12/13 07:06:07;;;;;;;;;;;8.90;99.90;;;;;;5055557;28;19925;-81
2023/12/13 07:08:34;;;;;;;;;;;8.90;99.90;;;;;;5070138;28;19924;-80
2023/12/13 07:11:03;;;;;;;;;;;8.90;99.90;;;;;;5067302;28;19933;-82
2023/12/13 07:13:30;;;;;;;;;;;8.90;99.90;;;;;;5071065;28;19931;-83
2023/12/13 07:15:58;;;;;;;;;;;8.90;99.90;;;;;;5064701;28;19971;-86
2023/12/13 07:18:24;;;;;;;;;;;8.90;99.90;;;;;;5070053;28;19968;-84
2023/12/13 07:20:51;;;;;;;;;;;8.90;99.90;;;;;;5062430;28;19981;-81
2023/12/13 07:23:18;;;;;;;;;;;8.90;99.90;;;;;;5072969;28;20307;-81
2023/12/13 07:25:45;;;;;;;;;;;9.00;99.90;;;;;;5069838;28;19978;-74
2023/12/13 07:28:13;;;;;;;;;;;9.00;99.90;;;;;;5064030;28;19924;-73
2023/12/13 07:30:41;;;;;;;;;;;9.00;99.90;;;;;;5072064;28;19990;-76
2023/12/13 07:33:10;;;;;;;;;;;9.00;99.90;;;;;;5071067;28;19924;-76
2023/12/13 07:35:36;;;;;;;;;;;9.00;99.90;;;;;;5070947;28;19978;-77
2023/12/13 07:38:04;;;;;;;;;;;9.00;99.90;;;;;;5062848;28;20459;-77
2023/12/13 07:40:31;;;;;;;;;;;9.00;99.90;;;;;;5068473;28;19967;-80
2023/12/13 07:42:57;;;;;;;;;;;8.90;99.90;;;;;;5066117;28;20110;-78
2023/12/13 07:45:24;;;;;;;;;;;8.90;99.90;;;;;;5067000;28;20387;-75
2023/12/13 07:47:51;;;;;;;;;;;8.90;99.90;;;;;;5064352;28;20009;-78
2023/12/13 07:50:19;;;;;;;;;;;8.90;99.90;;;;;;5070096;28;19925;-76
2023/12/13 07:52:46;;;;;;;;;;;8.90;99.90;;;;;;5068087;28;19924;-78
2023/12/13 07:55:15;;;;;;;;;;;8.90;99.90;;;;;;5070224;28;19978;-80
2023/12/13 07:57:41;;;;;;;;;;;8.90;99.90;;;;;;5069254;28;19931;-79
2023/12/13 08:00:10;;;;;;;;;;;8.90;99.90;;;;;;5067525;28;19932;-77
2023/12/13 08:02:37;;;;;;;;;;;8.90;99.90;;;;;;5070447;28;20006;-76
2023/12/13 08:05:04;;;;;;;;;;;8.90;99.90;;;;;;5068475;28;19947;-78
2023/12/13 08:07:32;;;;;;;;;;;9.00;99.90;;;;;;5065449;28;19970;-78
2023/12/13 08:10:00;;;;;;;;;;;8.90;99.90;;;;;;5065351;28;19970;-77
2023/12/13 08:12:27;;;;;;;;;;;8.90;99.90;;;;;;5068201;28;19929;-77
2023/12/13 08:14:54;;;;;;;;;;;8.90;99.90;;;;;;5071209;28;19928;-77
2023/12/13 08:17:21;;;;;;;;;;;8.90;99.90;;;;;;5069646;28;20476;-78
2023/12/13 08:19:47;;;;;;;;;;;8.90;99.90;;;;;;5068796;28;19942;-78
2023/12/13 08:22:14;;;;;;;;;;;8.90;99.90;;;;;;5068710;28;19924;-78
2023/12/13 08:24:43;;;;;;;;;;;8.90;99.90;;;;;;5069001;28;19924;-75
2023/12/13 08:27:10;;;;;;;;;;;8.90;99.90;;;;;;5077740;28;19924;-78
2023/12/13 08:29:37;;;;;;;;;;;9.00;99.90;;;;;;5080619;28;19924;-75
2023/12/13 08:32:07;;;;;;;;;;;9.00;99.90;;;;;;5070195;28;19925;-75
2023/12/13 08:34:33;;;;;;;;;;;9.00;99.90;;;;;;5070814;28;19924;-76
2023/12/13 08:37:00;;;;;;;;;;;9.10;99.90;;;;;;5063675;28;20421;-76
2023/12/13 08:39:27;;;;;;;;;;;9.00;99.90;;;;;;5071239;28;20015;-77
2023/12/13 08:41:55;;;;;;;;;;;9.10;99.90;;;;;;5072845;28;19928;-79
2023/12/13 08:44:23;;;;;;;;;;;9.10;99.90;;;;;;5067821;28;19933;-76
2023/12/13 08:46:49;;;;;;;;;;;9.10;99.90;;;;;;5066216;28;20340;-76
2023/12/13 08:49:16;;;;;;;;;;;9.10;99.90;;;;;;5064484;28;19974;-77
2023/12/13 08:51:43;;;;;;;;;;;9.10;99.90;;;;;;5063792;28;20469;-76
2023/12/13 08:54:09;;;;;;;;;;;9.10;99.90;;;;;;5064416;28;19925;-77
2023/12/13 08:56:36;;;;;;;;;;;9.10;99.90;;;;;;5073535;28;19924;-78
2023/12/13 08:59:04;;;;;;;;;;;9.10;99.90;;;;;;5072407;28;19983;-76
2023/12/13 09:01:31;;;;;;;;;;;9.10;99.90;;;;;;5065207;28;19932;-76
2023/12/13 09:03:59;;;;;;;;;;;9.10;99.90;;;;;;5069963;28;19929;-75
2023/12/13 09:06:25;;;;;;;;;;;9.10;99.90;;;;;;5066265;28;19925;-76
2023/12/13 09:08:52;;;;;;;;;;;9.10;99.90;;;;;;5062996;28;19971;-77
2023/12/13 09:11:19;;;;;;;;;;;9.20;99.90;;;;;;5069480;28;20008;-76
2023/12/13 09:13:46;;;;;;;;;;;9.30;99.90;;;;;;5066216;28;20435;-76
2023/12/13 09:16:14;;;;;;;;;;;9.20;99.90;;;;;;5073757;28;19951;-77
2023/12/13 09:18:43;;;;;;;;;;;9.30;99.90;;;;;;5068971;28;19972;-76
2023/12/13 09:21:10;;;;;;;;;;;9.30;99.90;;;;;;5070728;28;19978;-77
2023/12/13 09:23:39;;;;;;;;;;;9.30;99.90;;;;;;5070157;28;19924;-76
2023/12/13 09:26:06;;;;;;;;;;;9.40;99.90;;;;;;5055943;28;19970;-75
2023/12/13 09:28:35;;;;;;;;;;;9.40;99.90;;;;;;5063080;28;19932;-76
2023/12/13 09:31:02;;;;;;;;;;;9.30;99.90;;;;;;5065976;28;20001;-76
2023/12/13 09:33:31;;;;;;;;;;;9.30;99.90;;;;;;5067068;28;19925;-76
2023/12/13 09:35:57;;;;;;;;;;;9.20;99.90;;;;;;5054484;28;20058;-74
2023/12/13 09:38:24;;;;;;;;;;;9.20;99.90;;;;;;5072376;28;19978;-84
2023/12/13 09:40:51;;;;;;;;;;;9.20;99.90;;;;;;5065615;28;19979;-84
2023/12/13 09:43:19;;;;;;;;;;;9.20;99.90;;;;;;5070846;28;19924;-84
2023/12/13 09:45:47;;;;;;;;;;;9.20;99.90;;;;;;5073927;28;19929;-86
2023/12/13 09:48:21;;;;;;;;;;;9.20;99.90;;;;;;5069515;28;19977;-85
2023/12/13 09:50:50;;;;;;;;;;;9.30;99.90;;;;;;5066679;28;19947;-83
2023/12/13 09:53:17;;;;;;;;;;;9.30;99.90;;;;;;5069717;28;19933;-82
2023/12/13 09:55:44;;;;;;;;;;;9.40;99.90;;;;;;5069618;28;20034;-81
2023/12/13 09:58:11;;;;;;;;;;;9.50;99.90;;;;;;5069066;28;19994;-82
2023/12/13 10:00:38;;;;;;;;;;;9.50;99.90;;;;;;5061264;28;19924;-82
2023/12/13 10:03:05;;;;;;;;;;;9.60;99.90;;;;;;5071590;28;19925;-82
2023/12/13 10:05:34;;;;;;;;;;;9.70;99.90;;;;;;5065145;28;20384;-82
2023/12/13 10:08:03;;;;;;;;;;;9.70;99.90;;;;;;5067594;28;19924;-82
2023/12/13 10:10:31;;;;;;;;;;;9.70;99.90;;;;;;5062386;28;20330;-82
2023/12/13 10:12:58;;;;;;;;;;;9.80;99.90;;;;;;5069964;28;19924;-83
2023/12/13 10:15:30;;;;;;;;;;;9.80;99.90;;;;;;5067017;28;19928;-81
2023/12/13 10:17:58;;;;;;;;;;;9.80;99.90;;;;;;5056569;28;19932;-83
2023/12/13 10:20:25;;;;;;;;;;;9.80;99.90;;;;;;5073980;28;19969;-82
2023/12/13 10:22:52;;;;;;;;;;;9.90;99.90;;;;;;5068690;28;19931;-82
2023/12/13 10:25:21;;;;;;;;;;;9.90;99.90;;;;;;5073173;28;20002;-76
2023/12/13 10:27:48;;;;;;;;;;;9.80;99.90;;;;;;5068593;28;19954;-78
2023/12/13 10:30:15;;;;;;;;;;;9.80;99.90;;;;;;5074653;28;20208;-80
2023/12/13 10:32:42;;;;;;;;;;;10.00;99.90;;;;;;5069293;28;19925;-79
2023/12/13 10:35:09;;;;;;;;;;;10.20;99.90;;;;;;5071712;28;19924;-80
2023/12/13 10:37:36;;;;;;;;;;;10.20;99.90;;;;;;5074540;28;19928;-82
2023/12/13 10:40:03;;;;;;;;;;;10.20;99.90;;;;;;5069658;28;20437;-83
2023/12/13 10:42:32;;;;;;;;;;;10.30;99.90;;;;;;5074833;28;19928;-82
2023/12/13 10:45:01;;;;;;;;;;;10.20;99.90;;;;;;5071921;28;20011;-83
2023/12/13 10:47:28;;;;;;;;;;;10.10;99.90;;;;;;5074190;28;19924;-80
2023/12/13 10:49:55;;;;;;;;;;;10.10;99.90;;;;;;5075742;28;19932;-76
2023/12/13 10:52:24;;;;;;;;;;;10.10;99.90;;;;;;5074279;28;19932;-78
2023/12/13 10:54:51;;;;;;;;;;;10.00;99.90;;;;;;5071426;28;19929;-80
2023/12/13 10:57:18;;;;;;;;;;;9.90;99.90;;;;;;5073009;28;19982;-78
2023/12/13 10:59:46;;;;;;;;;;;9.80;99.90;;;;;;5057334;28;19970;-76
2023/12/13 11:02:16;;;;;;;;;;;9.80;99.90;;;;;;5069791;28;19986;-80
2023/12/13 11:04:44;;;;;;;;;;;9.80;99.90;;;;;;5070800;28;19931;-79
2023/12/13 11:07:11;;;;;;;;;;;9.90;99.90;;;;;;5071441;28;20016;-78
2023/12/13 11:09:49;;;;;;;;;;;9.80;99.90;;;;;;5068135;28;19932;-79
2023/12/13 11:12:18;;;;;;;;;;;9.80;99.90;;;;;;5068133;28;19932;-78
2023/12/13 11:14:49;;;;;;;;;;;9.80;99.90;;;;;;5071472;28;20034;-79
2023/12/13 11:17:16;;;;;;;;;;;9.90;99.90;;;;;;5071775;28;19936;-82
2023/12/13 11:19:43;;;;;;;;;;;9.90;99.90;;;;;;5075122;28;19932;-84
2023/12/13 11:22:12;;;;;;;;;;;9.90;99.90;;;;;;5075751;28;19928;-83
2023/12/13 11:24:40;;;;;;;;;;;10.00;99.90;;;;;;5075609;28;19956;-83
2023/12/13 11:27:10;;;;;;;;;;;10.00;99.90;;;;;;5076659;28;19925;-82
2023/12/13 11:29:37;;;;;;;;;;;10.10;99.90;;;;;;5073277;28;20687;-75
2023/12/13 11:32:05;;;;;;;;;;;10.10;99.90;;;;;;5075231;28;19928;-80
2023/12/13 11:34:33;;;;;;;;;;;10.00;99.90;;;;;;5068815;28;19929;-77
2023/12/13 11:37:00;;;;;;;;;;;10.00;99.90;;;;;;5072941;28;19924;-79
2023/12/13 11:39:27;;;;;;;;;;;10.00;99.90;;;;;;5072773;28;20171;-76
2023/12/13 11:41:54;;;;;;;;;;;10.00;99.90;;;;;;5068324;28;20312;-81
2023/12/13 11:44:21;;;;;;;;;;;10.00;99.90;;;;;;5066040;28;20395;-80
2023/12/13 11:46:53;;;;;;;;;;;10.00;99.90;;;;;;5071007;28;20349;-83
2023/12/13 11:49:22;;;;;;;;;;;10.00;99.90;;;;;;5069126;28;20003;-80
2023/12/13 11:51:49;;;;;;;;;;;9.90;99.90;;;;;;5070281;28;19924;-80
2023/12/13 11:54:16;;;;;;;;;;;9.90;99.90;;;;;;5073616;28;19924;-82
2023/12/13 11:56:44;;;;;;;;;;;9.90;99.90;;;;;;5068342;28;19939;-82
2023/12/13 11:59:11;;;;;;;;;;;9.90;99.90;;;;;;5075112;28;20031;-81
2023/12/13 12:01:39;;;;;;;;;;;9.90;99.90;;;;;;5073308;28;19924;-81
2023/12/13 12:04:06;;;;;;;;;;;9.90;99.90;;;;;;5075667;28;19983;-80
2023/12/13 12:06:34;;;;;;;;;;;10.00;99.90;;;;;;5074296;28;19939;-81
2023/12/13 12:09:01;;;;;;;;;;;10.00;99.90;;;;;;5075670;28;20395;-82
2023/12/13 12:11:28;;;;;;;;;;;10.00;99.90;;;;;;5075958;28;20185;-80
2023/12/13 12:13:55;;;;;;;;;;;10.10;99.90;;;;;;5069323;28;19975;-80
2023/12/13 12:16:22;;;;;;;;;;;10.30;99.90;;;;;;5068635;28;20451;-81
2023/12/13 12:18:49;;;;;;;;;;;10.60;99.90;;;;;;5071187;28;19924;-81
2023/12/13 12:21:16;;;;;;;;;;;10.90;99.90;;;;;;5067740;28;19956;-80
2023/12/13 12:23:44;;;;;;;;;;;11.00;99.90;;;;;;5072318;28;19978;-81
2023/12/13 12:26:11;;;;;;;;;;;11.10;99.90;;;;;;5065176;28;19924;-81
2023/12/13 12:28:39;;;;;;;;;;;11.10;99.90;;;;;;5074729;28;19925;-81
2023/12/13 12:31:09;;;;;;;;;;;11.10;99.90;;;;;;5073015;28;20484;-80
2023/12/13 12:33:36;;;;;;;;;;;11.00;99.90;;;;;;5064420;28;19931;-79
2023/12/13 12:36:03;;;;;;;;;;;10.90;99.90;;;;;;5074285;28;19932;-83
2023/12/13 12:38:30;;;;;;;;;;;10.80;99.90;;;;;;5071653;28;19924;-79
2023/12/13 12:40:58;;;;;;;;;;;10.60;99.90;;;;;;5075291;28;19924;-78
2023/12/13 12:43:25;;;;;;;;;;;10.40;99.90;;;;;;5061182;28;19979;-79
2023/12/13 12:45:52;;;;;;;;;;;10.40;99.90;;;;;;5066074;28;20377;-78
2023/12/13 12:48:19;;;;;;;;;;;10.30;99.90;;;;;;5061936;28;19924;-80
2023/12/13 12:50:46;;;;;;;;;;;10.30;99.90;;;;;;5068044;28;19931;-81
2023/12/13 12:53:13;;;;;;;;;;;10.20;99.90;;;;;;5066238;28;19932;-80
2023/12/13 12:55:40;;;;;;;;;;;10.30;99.90;;;;;;5064105;28;19936;-80
2023/12/13 12:58:09;;;;;;;;;;;10.40;99.90;;;;;;5064085;28;19958;-80
2023/12/13 13:00:35;;;;;;;;;;;10.30;99.90;;;;;;5069005;28;19971;-80
2023/12/13 13:03:04;;;;;;;;;;;10.40;99.90;;;;;;5066758;28;20349;-81
2023/12/13 13:05:31;;;;;;;;;;;10.50;99.90;;;;;;5072759;28;19932;-82
2023/12/13 13:07:58;;;;;;;;;;;10.50;99.90;;;;;;5069210;28;19978;-82
2023/12/13 13:10:25;;;;;;;;;;;10.60;99.90;;;;;;5070494;28;19936;-80
2023/12/13 13:12:52;;;;;;;;;;;10.60;99.90;;;;;;5064122;28;19986;-81
2023/12/13 13:15:22;;;;;;;;;;;10.50;99.90;;;;;;5068927;28;20395;-80
2023/12/13 13:17:49;;;;;;;;;;;10.50;99.90;;;;;;5066094;28;19928;-82
2023/12/13 13:20:18;;;;;;;;;;;10.60;99.90;;;;;;5064579;28;19963;-80
2023/12/13 13:22:45;;;;;;;;;;;10.50;99.90;;;;;;5066063;28;19932;-80
2023/12/13 13:25:15;;;;;;;;;;;10.40;99.90;;;;;;5063876;28;19932;-83
2023/12/13 13:27:41;;;;;;;;;;;10.30;99.90;;;;;;5061168;28;20332;-82
2023/12/13 13:30:08;;;;;;;;;;;10.20;99.90;;;;;;5071100;28;20403;-79
2023/12/13 13:32:37;;;;;;;;;;;10.30;99.90;;;;;;5054519;28;19951;-82
2023/12/13 13:35:04;;;;;;;;;;;10.40;99.90;;;;;;5057870;28;19931;-83
2023/12/13 13:37:31;;;;;;;;;;;10.30;99.90;;;;;;5064713;28;20007;-82
2023/12/13 13:39:58;;;;;;;;;;;10.30;99.90;;;;;;5064484;28;19925;-82
2023/12/13 13:42:25;;;;;;;;;;;10.30;99.90;;;;;;5069080;28;20337;-79
2023/12/13 13:44:51;;;;;;;;;;;10.30;99.90;;;;;;5063110;28;19924;-81
2023/12/13 13:47:18;;;;;;;;;;;10.30;99.90;;;;;;5060188;28;19933;-85
2023/12/13 13:49:46;;;;;;;;;;;10.40;99.90;;;;;;5061644;28;19999;-81
2023/12/13 13:52:13;;;;;;;;;;;10.40;99.90;;;;;;5065625;28;19994;-83
2023/12/13 13:54:40;;;;;;;;;;;10.50;99.90;;;;;;5068992;28;19924;-82
2023/12/13 13:57:07;;;;;;;;;;;10.50;99.90;;;;;;5055628;28;19928;-83
2023/12/13 13:59:33;;;;;;;;;;;10.50;99.90;;;;;;5066730;28;19928;-74
2023/12/13 14:02:00;;;;;;;;;;;10.60;99.90;;;;;;5002113;28;1957259;-83
2023/12/13 14:04:27;;;;;;;;;;;10.50;99.90;;;;;;5066638;28;19929;-84
2023/12/13 14:06:55;;;;;;;;;;;10.50;99.90;;;;;;5066362;28;20022;-83
2023/12/13 14:09:22;;;;;;;;;;;10.50;99.90;;;;;;5063154;28;19925;-83
2023/12/13 14:11:49;;;;;;;;;;;10.60;99.90;;;;;;5071377;28;19932;-79
2023/12/13 14:14:16;;;;;;;;;;;10.50;99.90;;;;;;5069956;28;19973;-84
2023/12/13 14:16:42;;;;;;;;;;;10.60;99.90;;;;;;5065339;28;20011;-82
2023/12/13 14:19:09;;;;;;;;;;;10.50;99.90;;;;;;5071958;28;19986;-83
2023/12/13 14:21:36;;;;;;;;;;;10.50;99.90;;;;;;5064315;28;20420;-84
2023/12/13 14:24:05;;;;;;;;;;;10.40;99.90;;;;;;5058963;28;20015;-83
2023/12/13 14:26:31;;;;;;;;;;;10.50;99.90;;;;;;5070409;28;19955;-81